Time;durP1;ratioP1;P1;durP2;ratioP2;P2;SDS_P1;SDS_P2;PMS_P1;PMS_P2;Temp;Humidity;BMP_temperature;BMP_pressure;BME280_temperature;BME280_humidity;BME280_pressure;Samples;Min_cycle;Max_cycle;Signal;HPM_P1;HPM_P2
2021/12/10 00:01:11;;;;;;;36.03;17.95;;;;;;;2.46;100.00;99484.13;5095480;28;20047;-52
2021/12/10 00:03:43;;;;;;;35.85;18.27;;;;;;;2.55;100.00;99490.88;5077105;28;20031;-51
2021/12/10 00:06:22;;;;;;;42.55;19.00;;;;;;;2.27;100.00;99430.88;5077339;28;20509;-51
2021/12/10 00:08:55;;;;;;;32.63;18.25;;;;;;;2.53;100.00;99474.47;5095330;28;20032;-51
2021/12/10 00:11:27;;;;;;;42.45;18.58;;;;;;;2.52;100.00;99475.34;5094966;28;20466;-50
2021/12/10 00:13:53;;;;;;;41.13;19.02;;;;;;;2.50;100.00;99472.78;5094928;28;20028;-55
2021/12/10 00:16:19;;;;;;;33.95;18.15;;;;;;;2.41;100.00;99453.94;5076961;28;20524;-52
2021/12/10 00:18:52;;;;;;;34.33;19.25;;;;;;;2.11;100.00;99393.13;5095296;28;20036;-54
2021/12/10 00:21:18;;;;;;;34.38;18.83;;;;;;;2.16;100.00;99407.72;5095031;28;20036;-49
2021/12/10 00:23:48;;;;;;;31.85;17.75;;;;;;;1.99;100.00;99377.81;5077000;28;20028;-48
2021/12/10 00:26:14;;;;;;;33.35;17.77;;;;;;;2.40;100.00;99453.09;5094842;28;20039;-48
2021/12/10 00:28:40;;;;;;;33.35;18.65;;;;;;;2.01;100.00;99379.53;5094643;28;20193;-50
2021/12/10 00:31:30;;;;;;;36.05;19.08;;;;;;;2.40;100.00;99445.28;5093979;28;20474;-50
2021/12/10 00:34:01;;;;;;;40.40;20.27;;;;;;;2.43;100.00;99428.78;5094945;28;20036;-50
2021/12/10 00:36:26;;;;;;;34.00;18.88;;;;;;;2.47;100.00;99418.31;5094604;28;20468;-50
2021/12/10 00:38:52;;;;;;;31.13;20.30;;;;;;;2.14;100.00;99357.59;5076501;28;20078;-49
2021/12/10 00:41:19;;;;;;;39.30;20.35;;;;;;;2.55;100.00;99419.00;5094771;28;20032;-51
2021/12/10 00:43:45;;;;;;;33.00;20.92;;;;;;;2.25;100.00;99337.44;5094648;28;20441;-50
2021/12/10 00:46:10;;;;;;;41.03;22.20;;;;;;;2.68;100.00;99409.19;5094686;28;20274;-48
2021/12/10 00:48:36;;;;;;;36.33;22.42;;;;;;;2.40;100.00;99353.53;5094302;28;20058;-49
2021/12/10 00:51:03;;;;;;;37.10;21.45;;;;;;;2.31;100.00;99323.47;5094263;28;20421;-49
2021/12/10 00:53:29;;;;;;;36.13;21.52;;;;;;;2.66;100.00;99370.25;5076132;28;20487;-53
2021/12/10 00:55:54;;;;;;;41.67;21.92;;;;;;;2.45;100.00;99334.38;5076567;28;20045;-52
2021/12/10 00:58:21;;;;;;;35.78;20.83;;;;;;;2.29;100.00;99312.25;5076421;28;20071;-54
2021/12/10 01:00:52;;;;;;;37.60;21.33;;;;;;;2.67;100.00;99369.34;5094493;28;20036;-50
2021/12/10 01:03:21;;;;;;;33.25;20.90;;;;;;;2.34;100.00;99309.53;5076089;28;20039;-50
2021/12/10 01:05:50;;;;;;;39.78;20.40;;;;;;;2.20;100.00;99284.78;5093341;28;20028;-51
2021/12/10 01:08:16;;;;;;;34.97;19.23;;;;;;;2.62;100.00;99346.97;5091732;28;20097;-52
2021/12/10 01:10:49;;;;;;;35.83;20.42;;;;;;;2.56;100.00;99350.56;5092801;28;20467;-52
2021/12/10 01:13:18;;;;;;;38.67;19.52;;;;;;;2.46;100.00;99336.09;5093765;28;20032;-54
2021/12/10 01:24:08;;;;;;;32.60;18.58;;;;;;;2.43;100.00;99320.59;5093894;28;20156;-48
2021/12/10 01:29:13;;;;;;;29.63;18.63;;;;;;;2.01;100.00;99241.13;5094002;28;20464;-49
2021/12/10 01:31:39;;;;;;;33.00;18.70;;;;;;;2.39;100.00;99305.13;5075356;28;20052;-50
2021/12/10 01:34:06;;;;;;;30.42;17.80;;;;;;;1.96;100.00;99238.63;5075582;28;20047;-51
2021/12/10 01:36:31;;;;;;;31.35;18.88;;;;;;;2.13;100.00;99274.59;5093652;28;20040;-50
2021/12/10 01:38:57;;;;;;;26.63;18.65;;;;;;;1.90;100.00;99230.16;5093406;28;20125;-50
2021/12/10 01:41:27;;;;;;;36.13;19.13;;;;;;;2.19;100.00;99272.69;5075129;28;20177;-49
2021/12/10 01:44:00;;;;;;;31.02;19.25;;;;;;;2.28;100.00;99296.75;5093496;28;20031;-48
2021/12/10 01:46:27;;;;;;;30.67;20.30;;;;;;;2.28;100.00;99291.53;5093471;28;20469;-50
2021/12/10 01:48:57;;;;;;;30.98;18.90;;;;;;;1.85;100.00;99217.25;5093307;28;20490;-47
2021/12/10 01:51:29;;;;;;;27.17;19.20;;;;;;;1.88;100.00;99226.72;5093602;28;20043;-50
2021/12/10 01:53:57;;;;;;;31.33;19.98;;;;;;;2.19;100.00;99272.69;5093043;28;20082;-53
2021/12/10 01:56:28;;;;;;;35.38;19.88;;;;;;;2.11;100.00;99256.44;5075116;28;20032;-49
2021/12/10 01:58:54;;;;;;;29.13;19.23;;;;;;;2.20;100.00;99270.94;5093150;28;20122;-50
2021/12/10 02:01:25;;;;;;;35.38;18.35;;;;;;;1.80;100.00;99194.91;5093067;28;20043;-48
2021/12/10 02:03:52;;;;;;;29.98;20.25;;;;;;;2.07;100.00;99233.19;5093221;28;20052;-53
2021/12/10 02:06:18;;;;;;;27.92;18.38;;;;;;;2.10;100.00;99240.91;5092921;28;20111;-47
2021/12/10 02:08:44;;;;;;;31.23;19.10;;;;;;;1.78;100.00;99186.31;5074527;28;20493;-48
2021/12/10 02:11:10;;;;;;;32.00;19.25;;;;;;;1.79;100.00;99188.00;5092496;28;20109;-49
2021/12/10 02:13:38;;;;;;;25.55;18.55;;;;;;;1.77;100.00;99182.00;5092517;28;20471;-51
2021/12/10 02:16:05;;;;;;;27.23;17.10;;;;;;;2.01;100.00;99216.03;5074512;28;20067;-48
2021/12/10 02:18:30;;;;;;;27.88;17.63;;;;;;;2.06;100.00;99228.88;5092783;28;20152;-51
2021/12/10 02:21:01;;;;;;;29.00;16.55;;;;;;;1.80;100.00;99171.56;5092469;28;20069;-49
2021/12/10 02:23:28;;;;;;;26.45;17.75;;;;;;;1.99;100.00;99207.41;5092994;28;20032;-49
2021/12/10 02:25:55;;;;;;;23.63;16.42;;;;;;;2.01;100.00;99202.19;5092886;28;20036;-50
2021/12/10 02:28:21;;;;;;;25.52;15.95;;;;;;;1.61;100.00;99138.28;5074631;28;20024;-50
2021/12/10 02:30:46;;;;;;;30.75;16.13;;;;;;;2.05;100.00;99198.63;5092550;28;20497;-48
2021/12/10 02:33:12;;;;;;;23.73;15.05;;;;;;;2.08;100.00;99207.19;5092814;28;20075;-49
2021/12/10 02:35:37;;;;;;;28.00;15.65;;;;;;;2.07;100.00;99189.91;5092521;28;20028;-50
2021/12/10 02:38:04;;;;;;;25.55;14.25;;;;;;;2.14;100.00;99199.25;5092655;28;20051;-48
2021/12/10 02:40:30;;;;;;;19.90;13.70;;;;;;;1.79;100.00;99125.75;5074154;28;20036;-50
2021/12/10 02:42:57;;;;;;;23.08;13.82;;;;;;;2.14;100.00;99164.66;5074420;28;20047;-48
2021/12/10 02:45:24;;;;;;;22.92;12.60;;;;;;;1.91;100.00;99108.16;5074655;28;20036;-50
2021/12/10 02:47:49;;;;;;;20.23;12.48;;;;;;;1.96;100.00;99105.44;5074488;28;20032;-51
2021/12/10 02:50:19;;;;;;;19.60;12.30;;;;;;;2.02;100.00;99111.31;5074147;28;20115;-52
2021/12/10 02:52:44;;;;;;;21.50;11.23;;;;;;;2.44;100.00;99155.25;5092349;28;20039;-53
2021/12/10 02:55:10;;;;;;;20.63;11.77;;;;;;;2.41;100.00;99143.19;5092050;28;20537;-47
2021/12/10 02:57:38;;;;;;;18.85;10.57;;;;;;;2.48;100.00;99147.31;5092328;28;20044;-51
2021/12/10 03:00:07;;;;;;;17.65;10.48;;;;;;;2.53;100.00;99150.66;5074189;28;20074;-49
2021/12/10 03:02:33;;;;;;;25.55;11.40;;;;;;;2.53;100.00;99145.47;5074254;28;20391;-51
2021/12/10 03:04:58;;;;;;;17.45;10.73;;;;;;;2.59;100.00;99134.91;5092478;28;20028;-52
2021/12/10 03:07:25;;;;;;;21.00;10.65;;;;;;;2.56;100.00;99118.56;5092455;28;20044;-49
2021/12/10 03:09:52;;;;;;;18.38;10.77;;;;;;;2.65;100.00;99133.91;5092192;28;20032;-51
2021/12/10 03:12:19;;;;;;;14.98;9.32;;;;;;;2.65;100.00;99131.28;5092278;28;20028;-49
2021/12/10 03:14:51;;;;;;;19.00;9.57;;;;;;;2.35;100.00;99096.63;5092257;28;20047;-48
2021/12/10 03:17:28;;;;;;;24.27;9.52;;;;;;;2.44;100.00;99073.00;5092075;28;20028;-50
2021/12/10 03:19:54;;;;;;;21.95;9.77;;;;;;;2.71;100.00;99118.13;5092308;28;20028;-53
2021/12/10 03:22:20;;;;;;;16.20;9.07;;;;;;;2.34;100.00;99042.13;5057482;28;20431;-50
2021/12/10 03:24:46;;;;;;;15.82;9.07;;;;;;;2.38;100.00;99049.81;5074047;28;20032;-50
2021/12/10 03:27:11;;;;;;;20.42;9.07;;;;;;;2.71;100.00;99105.16;5074039;28;20039;-53
2021/12/10 03:29:40;;;;;;;22.13;10.15;;;;;;;2.63;100.00;99096.69;5091836;28;20054;-51
2021/12/10 03:32:09;;;;;;;19.40;9.35;;;;;;;2.30;100.00;99025.81;5091657;28;20479;-53
2021/12/10 03:34:35;;;;;;;19.23;9.35;;;;;;;2.60;100.00;99070.81;5092136;28;20024;-50
2021/12/10 03:37:02;;;;;;;18.60;9.07;;;;;;;2.69;100.00;99081.78;5090814;28;20491;-51
2021/12/10 03:39:28;;;;;;;14.77;8.30;;;;;;;2.68;100.00;99084.44;5092036;28;20421;-52
2021/12/10 03:41:55;;;;;;;18.23;8.60;;;;;;;2.69;100.00;99087.00;5091815;28;20103;-51
2021/12/10 03:44:20;;;;;;;17.00;8.55;;;;;;;2.69;100.00;99083.53;5091907;28;20036;-51
2021/12/10 03:46:46;;;;;;;16.60;8.68;;;;;;;2.68;100.00;99071.47;5092111;28;20524;-49
2021/12/10 03:49:12;;;;;;;16.35;8.13;;;;;;;2.69;100.00;99073.16;5073894;28;20118;-52
2021/12/10 03:51:37;;;;;;;17.55;8.93;;;;;;;2.69;100.00;99057.56;5073668;28;20089;-52
2021/12/10 03:54:05;;;;;;;14.93;8.68;;;;;;;2.62;100.00;99041.31;5057038;28;20040;-49
2021/12/10 03:56:33;;;;;;;18.85;8.55;;;;;;;2.71;100.00;99054.06;5073737;28;20036;-50
2021/12/10 03:59:00;;;;;;;18.40;8.35;;;;;;;2.45;100.00;99014.13;5091573;28;20063;-49
2021/12/10 04:01:30;;;;;;;20.00;8.40;;;;;;;2.40;100.00;98993.47;5091913;28;20036;-50
2021/12/10 04:03:56;;;;;;;16.00;8.07;;;;;;;2.38;100.00;98982.28;5091657;28;20479;-50
2021/12/10 04:06:23;;;;;;;19.88;8.18;;;;;;;2.70;100.00;99028.97;5092301;28;20032;-52
2021/12/10 04:08:49;;;;;;;18.17;7.75;;;;;;;2.68;100.00;99040.28;5074189;28;20588;-49
2021/12/10 04:11:15;;;;;;;19.02;8.27;;;;;;;2.69;100.00;99018.59;5075001;28;20173;-51
2021/12/10 04:13:44;;;;;;;15.70;7.25;;;;;;;2.32;100.00;98956.50;5094917;28;20036;-50
2021/12/10 04:16:10;;;;;;;13.18;7.40;;;;;;;2.68;100.00;99016.91;5095186;28;20475;-52
2021/12/10 04:18:37;;;;;;;18.90;7.10;;;;;;;2.35;100.00;98956.41;5095004;28;20044;-51
2021/12/10 04:21:04;;;;;;;16.17;7.82;;;;;;;2.56;100.00;98992.16;5095117;28;20035;-52
2021/12/10 04:23:30;;;;;;;17.95;7.72;;;;;;;2.67;100.00;99003.06;5076949;28;20028;-53
2021/12/10 04:25:55;;;;;;;17.58;7.38;;;;;;;2.70;100.00;99004.72;5094803;28;20436;-51
2021/12/10 04:28:21;;;;;;;13.68;6.72;;;;;;;2.68;100.00;98997.00;5076852;28;20036;-51
2021/12/10 04:30:48;;;;;;;16.10;6.97;;;;;;;2.69;100.00;98977.88;5094874;28;20043;-54
2021/12/10 04:33:16;;;;;;;12.27;6.65;;;;;;;2.72;100.00;98984.72;5094554;28;20040;-51
2021/12/10 04:35:44;;;;;;;13.40;6.57;;;;;;;2.55;100.00;98951.47;5076741;28;20032;-53
2021/12/10 04:38:10;;;;;;;13.95;6.38;;;;;;;2.62;100.00;98960.81;5094605;28;20028;-52
2021/12/10 04:40:36;;;;;;;15.60;6.40;;;;;;;2.66;100.00;98959.78;5076530;28;20130;-48
2021/12/10 04:43:02;;;;;;;16.70;5.75;;;;;;;2.73;100.00;98979.50;5094891;28;20119;-51
2021/12/10 04:45:28;;;;;;;12.23;5.70;;;;;;;2.74;100.00;98965.59;5076764;28;20041;-51
2021/12/10 04:47:53;;;;;;;12.48;5.85;;;;;;;2.44;100.00;98909.41;5094494;28;20040;-53
2021/12/10 04:50:22;;;;;;;12.10;5.45;;;;;;;2.76;100.00;98969.03;5094366;28;20497;-51
2021/12/10 04:52:48;;;;;;;14.85;6.25;;;;;;;2.51;100.00;98926.47;5094766;28;20052;-53
2021/12/10 04:55:16;;;;;;;10.35;5.45;;;;;;;2.79;100.00;98963.72;5076160;28;20110;-51
2021/12/10 04:57:42;;;;;;;13.40;5.57;;;;;;;2.49;100.00;98899.72;5094521;28;20156;-51
2021/12/10 05:00:11;;;;;;;12.10;5.28;;;;;;;2.47;100.00;98896.34;5076411;28;20059;-51
2021/12/10 05:02:37;;;;;;;16.52;5.50;;;;;;;2.82;100.00;98936.81;5094138;28;20479;-51
2021/12/10 05:05:04;;;;;;;11.43;5.13;;;;;;;2.84;100.00;98933.25;5094120;28;20364;-48
2021/12/10 05:07:33;;;;;;;10.40;4.63;;;;;;;2.76;100.00;98926.59;5093996;28;20064;-51
2021/12/10 05:09:59;;;;;;;10.40;4.70;;;;;;;2.82;100.00;98923.81;5093810;28;20435;-52
2021/12/10 05:12:24;;;;;;;12.45;4.20;;;;;;;2.84;100.00;98932.41;5094217;28;20115;-50
2021/12/10 05:14:52;;;;;;;7.03;3.80;;;;;;;2.76;100.00;98908.41;5094058;28;20032;-51
2021/12/10 05:17:18;;;;;;;13.32;4.13;;;;;;;2.79;100.00;98921.31;5093499;28;20039;-52
2021/12/10 05:19:44;;;;;;;14.65;4.55;;;;;;;2.50;100.00;98859.88;5093924;28;20036;-56
2021/12/10 05:22:12;;;;;;;14.38;4.35;;;;;;;2.88;100.00;98917.56;5093888;28;20115;-54
2021/12/10 05:24:37;;;;;;;11.20;3.97;;;;;;;2.18;100.00;98801.19;5094249;28;20035;-51
2021/12/10 05:27:03;;;;;;;12.43;4.10;;;;;;;2.50;100.00;98856.44;5075544;28;20391;-55
2021/12/10 05:29:29;;;;;;;11.18;3.55;;;;;;;2.56;100.00;98858.84;5093682;28;20402;-52
2021/12/10 05:31:56;;;;;;;12.88;3.88;;;;;;;2.87;100.00;98903.72;5075411;28;20032;-51
2021/12/10 05:34:21;;;;;;;8.52;3.60;;;;;;;2.92;100.00;98907.00;5093720;28;20246;-53
2021/12/10 05:36:47;;;;;;;13.68;4.13;;;;;;;2.63;100.00;98856.00;5093501;28;20032;-53
2021/12/10 05:39:14;;;;;;;9.38;3.60;;;;;;;2.97;100.00;98927.66;5093786;28;20111;-49
2021/12/10 05:41:40;;;;;;;8.95;3.60;;;;;;;2.98;100.00;98914.63;5075834;28;20032;-50
2021/12/10 05:44:06;;;;;;;7.85;3.80;;;;;;;2.54;100.00;98848.47;5075462;28;20467;-50
2021/12/10 05:46:32;;;;;;;6.32;2.72;;;;;;;3.01;100.00;98913.66;5058700;28;20036;-51
2021/12/10 05:48:58;;;;;;;10.63;2.78;;;;;;;2.72;100.00;98857.44;5093289;28;20024;-53
2021/12/10 05:51:24;;;;;;;13.90;3.30;;;;;;;3.05;100.00;98920.47;5093115;28;20081;-55
2021/12/10 05:53:49;;;;;;;9.15;2.90;;;;;;;2.53;100.00;98823.44;5093159;28;20043;-48
2021/12/10 05:56:16;;;;;;;8.52;3.20;;;;;;;2.66;100.00;98842.03;5093200;28;20024;-51
2021/12/10 05:58:41;;;;;;;11.00;3.35;;;;;;;3.05;100.00;98916.13;5093193;28;20101;-52
2021/12/10 06:01:10;;;;;;;8.25;3.30;;;;;;;3.03;100.00;98917.06;5093232;28;20036;-50
2021/12/10 06:03:38;;;;;;;8.65;3.35;;;;;;;2.61;100.00;98844.81;5092949;28;20072;-53
2021/12/10 06:06:05;;;;;;;6.72;3.15;;;;;;;2.95;100.00;98899.13;5092928;28;20024;-49
2021/12/10 06:08:31;;;;;;;11.88;2.90;;;;;;;3.03;100.00;98909.28;5074735;28;20063;-53
2021/12/10 06:10:58;;;;;;;12.73;3.05;;;;;;;2.89;100.00;98888.09;5093003;28;20084;-51
2021/12/10 06:13:24;;;;;;;7.25;3.20;;;;;;;3.04;100.00;98921.34;5093146;28;20368;-51
2021/12/10 06:15:49;;;;;;;7.63;2.53;;;;;;;2.73;100.00;98860.00;5092800;28;20085;-51
2021/12/10 06:18:15;;;;;;;6.70;2.88;;;;;;;3.05;100.00;98912.66;5074702;28;20028;-52
2021/12/10 06:20:44;;;;;;;10.48;3.15;;;;;;;3.01;100.00;98921.44;5074518;28;20127;-53
2021/12/10 06:23:09;;;;;;;8.27;3.22;;;;;;;2.69;100.00;98863.59;5092803;28;20024;-51
2021/12/10 06:25:36;;;;;;;9.95;3.13;;;;;;;2.57;100.00;98839.78;5092947;28;20038;-49
2021/12/10 06:28:02;;;;;;;8.00;3.03;;;;;;;3.07;100.00;98926.47;5092398;28;20123;-53
2021/12/10 06:30:37;;;;;;;9.35;3.20;;;;;;;3.09;100.00;98927.28;5092037;28;20240;-50
2021/12/10 06:33:07;;;;;;;10.85;3.10;;;;;;;3.06;100.00;98924.78;5091652;28;20071;-48
2021/12/10 06:35:33;;;;;;;7.13;2.83;;;;;;;3.04;100.00;98935.22;5091642;28;20039;-51
2021/12/10 06:37:59;;;;;;;8.05;2.85;;;;;;;2.73;100.00;98867.78;5090193;28;20039;-50
2021/12/10 06:40:27;;;;;;;13.60;3.22;;;;;;;2.72;100.00;98862.63;5090417;28;20395;-49
2021/12/10 06:42:52;;;;;;;8.60;3.30;;;;;;;3.04;100.00;98922.22;5090483;28;20028;-51
2021/12/10 06:45:27;;;;;;;10.40;2.47;;;;;;;3.06;100.00;98919.59;5091845;28;20032;-53
2021/12/10 06:47:58;;;;;;;8.55;2.90;;;;;;;2.95;100.00;98916.50;5087421;28;20921;-50
2021/12/10 06:50:25;;;;;;;5.95;3.10;;;;;;;2.60;100.00;98852.63;5088330;28;20058;-51
2021/12/10 06:52:51;;;;;;;9.43;3.38;;;;;;;2.88;100.00;98909.78;5089204;28;20205;-49
2021/12/10 06:55:17;;;;;;;9.95;3.85;;;;;;;2.98;100.00;98927.59;5090885;28;20054;-52
2021/12/10 06:57:43;;;;;;;11.13;3.60;;;;;;;2.54;100.00;98858.88;5091558;28;20467;-49
2021/12/10 07:00:16;;;;;;;7.70;3.50;;;;;;;2.76;100.00;98906.66;5091536;28;20031;-50
2021/12/10 07:02:43;;;;;;;12.73;3.42;;;;;;;2.54;100.00;98866.66;5074682;28;20055;-53
2021/12/10 07:05:08;;;;;;;8.85;4.15;;;;;;;2.82;100.00;98914.28;5074511;28;20115;-51
2021/12/10 07:07:34;;;;;;;9.88;3.55;;;;;;;2.60;100.00;98876.00;5092201;28;20123;-49
2021/12/10 07:10:00;;;;;;;10.00;3.50;;;;;;;2.89;100.00;98935.69;5074135;28;20024;-50
2021/12/10 07:12:26;;;;;;;9.05;3.42;;;;;;;2.83;100.00;98918.56;5092196;28;20028;-49
2021/12/10 07:14:52;;;;;;;15.75;4.07;;;;;;;2.81;100.00;98911.72;5092106;28;20036;-50
2021/12/10 07:17:17;;;;;;;10.57;3.47;;;;;;;2.67;100.00;98895.72;5092286;28;20391;-50
2021/12/10 07:19:43;;;;;;;10.82;3.40;;;;;;;2.83;100.00;98926.34;5074215;28;20063;-52
2021/12/10 07:22:09;;;;;;;12.32;4.13;;;;;;;2.86;100.00;98933.19;5092187;28;20034;-52
2021/12/10 07:24:34;;;;;;;15.15;4.20;;;;;;;2.51;100.00;98874.53;5074027;28;20028;-49
2021/12/10 07:27:00;;;;;;;8.45;3.78;;;;;;;2.84;100.00;98927.19;5092005;28;20056;-51
2021/12/10 07:29:26;;;;;;;14.02;4.45;;;;;;;2.59;100.00;98885.56;5092487;28;20032;-48
2021/12/10 07:31:53;;;;;;;13.43;4.03;;;;;;;2.99;100.00;98949.25;5073745;28;20039;-48
2021/12/10 07:34:18;;;;;;;11.93;4.15;;;;;;;2.89;100.00;98935.69;5091818;28;20051;-49
2021/12/10 07:36:44;;;;;;;13.50;4.25;;;;;;;2.98;100.00;98951.00;5073878;28;20036;-48
2021/12/10 07:39:10;;;;;;;9.48;4.00;;;;;;;2.93;100.00;98949.44;5073915;28;20040;-48
2021/12/10 07:41:36;;;;;;;12.70;3.97;;;;;;;2.68;100.00;98900.03;5077523;28;20040;-57
2021/12/10 07:44:03;;;;;;;11.95;4.00;;;;;;;2.72;100.00;98912.84;5095544;28;20028;-48
2021/12/10 07:46:28;;;;;;;12.60;4.45;;;;;;;2.98;100.00;98960.56;5077725;28;20080;-52
2021/12/10 07:48:55;;;;;;;11.45;4.10;;;;;;;2.66;100.00;98896.59;5095919;28;20500;-49
2021/12/10 07:51:25;;;;;;;12.02;4.68;;;;;;;2.60;100.00;98899.38;5095621;28;20043;-49
2021/12/10 07:53:57;;;;;;;11.70;4.53;;;;;;;2.93;100.00;98965.03;5096006;28;20529;-53
2021/12/10 07:56:23;;;;;;;11.02;4.57;;;;;;;2.83;100.00;98943.72;5077332;28;20065;-50
2021/12/10 07:58:49;;;;;;;11.43;4.85;;;;;;;2.94;100.00;98961.56;5095403;28;20039;-58
2021/12/10 08:01:20;;;;;;;11.27;4.75;;;;;;;2.66;100.00;98915.63;5095435;28;20032;-47
2021/12/10 08:03:47;;;;;;;8.23;4.75;;;;;;;2.91;100.00;98969.44;5095577;28;20028;-48
2021/12/10 08:06:13;;;;;;;10.70;4.50;;;;;;;2.90;100.00;98954.75;5095242;28;20115;-56
2021/12/10 08:08:39;;;;;;;18.15;5.25;;;;;;;2.82;100.00;98955.00;5095075;28;20028;-49
2021/12/10 08:11:05;;;;;;;13.20;5.15;;;;;;;2.86;100.00;98976.53;5076936;28;20036;-48
2021/12/10 08:13:30;;;;;;;14.18;5.45;;;;;;;2.81;100.00;98953.28;5094490;28;20035;-55
2021/12/10 08:15:56;;;;;;;11.93;5.53;;;;;;;2.74;100.00;98946.59;5094022;28;20433;-49
2021/12/10 08:18:21;;;;;;;12.50;5.72;;;;;;;2.43;100.00;98899.91;5076032;28;20406;-48
2021/12/10 08:20:47;;;;;;;13.05;5.75;;;;;;;2.81;100.00;98968.88;5093958;28;20032;-48
2021/12/10 08:23:13;;;;;;;17.25;6.10;;;;;;;2.88;100.00;98978.19;5075992;28;20078;-50
2021/12/10 08:25:38;;;;;;;13.15;5.85;;;;;;;2.47;100.00;98903.28;5093859;28;20032;-49
2021/12/10 08:28:04;;;;;;;13.27;5.78;;;;;;;2.88;100.00;98974.72;5075674;28;20035;-47
2021/12/10 08:30:33;;;;;;;15.63;5.72;;;;;;;2.47;100.00;98909.31;5093696;28;20050;-50
2021/12/10 08:32:59;;;;;;;18.38;6.85;;;;;;;2.76;100.00;98957.78;5093309;28;20051;-48
2021/12/10 08:35:29;;;;;;;12.98;5.85;;;;;;;2.87;100.00;98978.22;5093824;28;20131;-52
2021/12/10 08:37:56;;;;;;;18.10;6.50;;;;;;;2.91;100.00;98988.50;5093669;28;20387;-51
2021/12/10 08:40:26;;;;;;;12.48;5.65;;;;;;;2.93;100.00;98981.47;5075477;28;20028;-52
2021/12/10 08:42:53;;;;;;;19.27;5.95;;;;;;;2.93;100.00;98975.44;5093596;28;20702;-51
2021/12/10 08:45:19;;;;;;;19.40;6.40;;;;;;;2.93;100.00;98988.44;5093534;28;20062;-50
2021/12/10 08:47:46;;;;;;;15.75;5.88;;;;;;;2.86;100.00;98968.75;5075220;28;20032;-49
2021/12/10 08:50:11;;;;;;;16.17;7.22;;;;;;;2.92;100.00;98986.75;5093180;28;20032;-51
2021/12/10 08:52:37;;;;;;;20.30;6.55;;;;;;;2.78;100.00;98954.22;5074200;28;20035;-52
2021/12/10 08:55:04;;;;;;;11.27;6.03;;;;;;;2.97;100.00;98980.50;5075309;28;20027;-49
2021/12/10 08:57:30;;;;;;;16.33;6.00;;;;;;;3.04;100.00;98997.59;5093091;28;20544;-52
2021/12/10 08:59:55;;;;;;;11.85;5.75;;;;;;;2.69;100.00;98923.34;5058338;28;20040;-52
2021/12/10 09:02:21;;;;;;;14.93;5.93;;;;;;;2.87;100.00;98960.03;5093334;28;20525;-49
2021/12/10 09:04:46;;;;;;;13.30;5.95;;;;;;;2.81;100.00;98950.69;5093196;28;20395;-49
2021/12/10 09:07:14;;;;;;;12.70;5.53;;;;;;;2.73;100.00;98948.34;5075159;28;20379;-50
2021/12/10 09:09:41;;;;;;;18.48;5.68;;;;;;;3.10;100.00;99015.59;5058316;28;20028;-49
2021/12/10 09:12:12;;;;;;;15.15;5.72;;;;;;;3.09;100.00;99015.66;5074668;28;20475;-52
2021/12/10 09:14:43;;;;;;;12.50;6.32;;;;;;;2.84;100.00;98968.78;5093024;28;20102;-53
2021/12/10 09:17:09;;;;;;;11.18;6.07;;;;;;;2.68;100.00;98955.44;5075532;28;20029;-52
2021/12/10 09:19:36;;;;;;;11.32;6.05;;;;;;;3.04;100.00;99009.72;5093306;28;20035;-51
2021/12/10 09:22:02;;;;;;;14.68;6.20;;;;;;;2.66;100.00;98945.94;5091897;28;20147;-50
2021/12/10 09:24:28;;;;;;;15.20;5.93;;;;;;;2.72;100.00;98966.53;5073076;28;20039;-52
2021/12/10 09:26:57;;;;;;;13.18;6.18;;;;;;;3.03;100.00;99018.44;5090642;28;20028;-48
2021/12/10 09:29:25;;;;;;;10.52;6.32;;;;;;;3.07;100.00;99023.50;5092243;28;20036;-51
2021/12/10 09:31:52;;;;;;;15.38;6.85;;;;;;;3.16;100.00;99043.16;5091128;28;20040;-52
2021/12/10 09:34:18;;;;;;;15.73;6.82;;;;;;;3.19;100.00;99035.25;5091273;28;20079;-50
2021/12/10 09:36:46;;;;;;;14.90;6.70;;;;;;;3.20;100.00;99049.97;5091435;28;20067;-51
2021/12/10 09:39:14;;;;;;;13.38;6.15;;;;;;;3.21;100.00;99046.47;5092578;28;20130;-52
2021/12/10 09:41:40;;;;;;;9.38;6.00;;;;;;;2.89;100.00;98992.84;5057632;28;20081;-48
2021/12/10 09:44:07;;;;;;;17.02;6.38;;;;;;;3.17;100.00;99053.50;5074090;28;20040;-52
2021/12/10 09:46:37;;;;;;;14.85;6.05;;;;;;;3.11;100.00;99038.09;5092157;28;20064;-50
2021/12/10 09:49:05;;;;;;;13.75;5.88;;;;;;;3.17;100.00;99056.13;5092201;28;20414;-49
2021/12/10 09:51:35;;;;;;;18.08;6.70;;;;;;;3.05;100.00;99032.25;5092080;28;20044;-52
2021/12/10 09:54:03;;;;;;;14.90;7.15;;;;;;;3.23;100.00;99060.28;5073828;28;20471;-50
2021/12/10 09:56:28;;;;;;;14.82;6.47;;;;;;;2.84;100.00;98994.75;5092281;28;20433;-53
2021/12/10 09:58:56;;;;;;;16.33;6.05;;;;;;;3.24;100.00;99064.59;5092039;28;20029;-51
2021/12/10 10:01:33;;;;;;;15.90;6.13;;;;;;;3.04;100.00;99031.38;5057326;28;20036;-51
2021/12/10 10:04:01;;;;;;;12.95;6.20;;;;;;;3.12;100.00;99049.34;5073709;28;20028;-51
2021/12/10 10:06:32;;;;;;;18.25;6.35;;;;;;;3.16;100.00;99066.53;5091966;28;20032;-50
2021/12/10 10:08:57;;;;;;;8.63;5.70;;;;;;;3.18;100.00;99072.56;5073819;28;20482;-50
2021/12/10 10:11:27;;;;;;;14.32;6.65;;;;;;;3.19;100.00;99063.84;5091708;28;20044;-48
2021/12/10 10:13:54;;;;;;;11.95;5.97;;;;;;;3.11;100.00;99050.25;5091555;28;20032;-53
2021/12/10 10:16:20;;;;;;;14.27;6.30;;;;;;;2.79;100.00;99000.09;5091558;28;20032;-53
2021/12/10 10:18:47;;;;;;;16.10;6.97;;;;;;;3.21;100.00;99069.88;5073514;28;20475;-52
2021/12/10 10:21:21;;;;;;;15.15;7.28;;;;;;;2.96;100.00;99025.56;5091811;28;20028;-50
2021/12/10 10:23:48;;;;;;;14.40;7.32;;;;;;;2.84;100.00;99010.34;5091722;28;20409;-49
2021/12/10 10:26:32;;;;;;;18.80;7.93;;;;;;;3.25;100.00;99080.13;5091909;28;20040;-50
2021/12/10 10:29:00;;;;;;;16.23;7.72;;;;;;;2.94;100.00;99035.16;5091589;28;20035;-52
2021/12/10 10:31:26;;;;;;;16.95;7.95;;;;;;;3.23;100.00;99073.28;5091459;28;20080;-51
2021/12/10 10:33:55;;;;;;;16.65;7.63;;;;;;;3.18;100.00;99072.56;5073423;28;20117;-54
2021/12/10 10:36:23;;;;;;;21.73;8.23;;;;;;;3.11;100.00;99058.03;5091296;28;20047;-53
2021/12/10 10:39:15;;;;;;;18.05;7.45;;;;;;;3.18;100.00;99072.56;5073243;28;20032;-51
2021/12/10 10:41:43;;;;;;;22.45;8.02;;;;;;;2.93;100.00;99027.41;5091440;28;20023;-49
2021/12/10 10:44:09;;;;;;;21.35;7.65;;;;;;;3.24;100.00;99072.38;5091336;28;20078;-51
2021/12/10 10:46:35;;;;;;;17.73;8.55;;;;;;;3.30;100.00;99082.56;5091264;28;20413;-50
2021/12/10 10:49:01;;;;;;;21.85;8.02;;;;;;;2.97;100.00;99019.50;5091158;28;20073;-52
2021/12/10 10:51:33;;;;;;;23.38;7.80;;;;;;;3.11;100.00;99042.44;5090987;28;20467;-50
2021/12/10 10:54:00;;;;;;;18.52;8.05;;;;;;;3.35;100.00;99083.31;5091259;28;20028;-50
2021/12/10 10:56:39;;;;;;;15.50;8.38;;;;;;;3.01;100.00;99028.00;5091178;28;20113;-50
2021/12/10 10:59:25;;;;;;;20.70;9.02;;;;;;;3.37;100.00;99084.09;5091103;28;20109;-51
2021/12/10 11:01:59;;;;;;;17.88;8.80;;;;;;;3.32;100.00;99078.19;5091061;28;20035;-50
2021/12/10 11:04:29;;;;;;;19.65;8.52;;;;;;;3.37;100.00;99095.34;5091034;28;20391;-49
2021/12/10 11:07:05;;;;;;;25.20;9.75;;;;;;;3.00;100.00;99024.59;5073149;28;20066;-51
2021/12/10 11:09:33;;;;;;;23.25;9.63;;;;;;;3.03;100.00;99018.44;5091178;28;20028;-51
2021/12/10 11:12:07;;;;;;;20.02;9.45;;;;;;;3.36;100.00;99085.84;5090681;28;20105;-53
2021/12/10 11:14:41;;;;;;;23.90;10.20;;;;;;;2.92;100.00;99008.34;5091355;28;20211;-53
2021/12/10 11:17:16;;;;;;;21.42;10.18;;;;;;;3.40;100.00;99090.06;5060606;28;20035;-51
2021/12/10 11:19:52;;;;;;;20.50;10.30;;;;;;;3.24;100.00;99057.59;5077122;28;20028;-51
2021/12/10 11:22:18;;;;;;;20.00;10.15;;;;;;;3.45;100.00;99089.91;5076973;28;20089;-50
2021/12/10 11:24:47;;;;;;;23.10;10.13;;;;;;;3.55;100.00;99104.34;5094966;28;20035;-49
2021/12/10 11:27:32;;;;;;;27.98;10.13;;;;;;;3.23;100.00;99042.06;5095044;28;20055;-50
2021/12/10 11:30:01;;;;;;;20.55;9.15;;;;;;;3.63;100.00;99102.34;5094807;28;20086;-54
2021/12/10 11:32:31;;;;;;;20.58;10.35;;;;;;;3.63;100.00;99120.53;5094569;28;20067;-50
2021/12/10 11:35:06;;;;;;;20.15;9.38;;;;;;;3.64;100.00;99118.81;5095312;28;20074;-48
2021/12/10 11:37:40;;;;;;;20.05;11.18;;;;;;;3.67;100.00;99105.69;5077060;28;20181;-51